Faro Airport Faro PT
ICAO: LPFR
IATA: FAO
Category: Large
Scheduled Services: Yes

Elevation: 24 ft
TransAlt. 4000 ft.

Airport Communications:
APP:119.4
ATIS:124.2
GND:118.575
TWR:118.2

LPFR Zoom In..

Runways:

(A) RW 10 length 8169 ft width 148 ft
---- / hdg 104

(B) RW 28 length 8169 ft width 148 ft
ILS 109.50 / hdg 284

Location; LPFR
Day. 20 / Time. 11.00 Zulu
* QNH: 1014
* Temperature: 22° c. 71.6°f.
* Wind from: 220° Speed 08 kn.
Dewpoint: 14° c.
Visibility: 10 km or more.
Clouds: Few 3000 ft.

LPFR 201100Z 22008KT 9999 FEW030 22/14 Q1014


Wind From 220°
Speed 08 kn.

 
 
jpsmedia.com for Web Design SOUNDCLOUD worldairports.se 2018   terms of use